logo
App data

The Nest

The Nest has been reborn, and now it is Multiplayer! Join friends or strangers to battle for control of the last reserves of "crypto" in the system. Try multiple classes, maps and game modes, and choose to support the enigmatic Angroid, or the treacherous DieOS.
Store | Hub | SteamDB | Site
Developer: invrse studios Publisher: invrse studios
Genre: Action, Indie, Simulation, Sports, Early Access
Languages: English
Tags: Early Access (23), Indie (22), Action (22), Simulation (21), Sports (20), VR (18)
Category: Multi-player, PvP, Online PvP, Steam Achievements
Release date: Jun 14, 2016
Free
Old userscore: 63% Owners: 0 .. 20,000
Followers: 1,754
Peak concurrent players yesterday: 1
YouTube stats: 1,149 views and 90 comments for top 50 videos uploaded last week, 9 new videos uploaded yesterday.
Playtime total: 00:10 (average) 00:10 (median)

Steam Spy is still in beta, so expect major bugs.

Owners data:

Access restricted.

This feature is only available to users with special access rights. Sorry.

If you want to proceed, you need to register or log in first and then back Steam Spy on Patreon. Look for Indie or Pro pledge.

Don't forget to use the same email as on Steam Spy!

Audience in 2 weeks:

Access restricted.

This feature is only available to users with special access rights. Sorry.

If you want to proceed, you need to register or log in first and then back Steam Spy on Patreon. Look for Indie or Pro pledge.

Don't forget to use the same email as on Steam Spy!

Peak daily concurrent players:

CCU data courtesy of SteamDB. Used with permission.

Hourly concurrent players:

Followers over time

Access restricted.

This feature is only available to users with special access rights. Sorry.

If you want to proceed, you need to register or log in first and then back Steam Spy on Patreon. Look for Indie or Pro pledge.

Don't forget to use the same email as on Steam Spy!

Views for top 50 videos on YouTube for this game:

Games similar to this one:

# Game Release date
Price
Score rank
(Userscore / Metascore)
Owners
Players
Playtime (Median)
1 mr.President Prologue Episode Sep 20, 2016 $0.49N/A (N/A)20,000 .. 50,0000%00:00 (00:00)
2 Super Duper Party Pooper Jun 6, 2016 $0.49N/A (N/A/40%)100,000 .. 200,0000%00:00 (00:00)
3 BoomTown! Deluxe Oct 14, 2016 $1.99N/A (N/A)20,000 .. 50,0000%00:00 (00:00)
4 DashBored Jun 13, 2016 $4.99N/A (N/A)20,000 .. 50,0000%00:00 (00:00)
5 Son of a Witch May 16, 2018 $7.49N/A (N/A)20,000 .. 50,0000%00:00 (00:00)
6 Bohemian Killing Jul 21, 2016 $2.59N/A (N/A/55%)0 .. 20,0000%00:00 (00:00)
7 Pixel Gladiator Sep 8, 2017 $0.74N/A (N/A)20,000 .. 50,0000%00:00 (00:00)
8 You Deserve Aug 19, 2016 $0.99N/A (N/A)20,000 .. 50,0000%00:00 (00:00)
9 Snake Pass Mar 28, 2017 $4.99N/A (N/A/71%)200,000 .. 500,0000%00:00 (00:00)
10 Dinosaur Forest May 17, 2017 $0.49N/A (N/A)50,000 .. 100,0000%00:00 (00:00)
11 Wayout Nov 4, 2016 $0.49N/A (N/A)50,000 .. 100,0007.69%01:16 (00:25)
12 Joana's Life Sep 1, 2016 $2.99N/A (N/A)50,000 .. 100,0000%00:00 (00:00)
13 Star Drifter Jun 1, 2016 $0.49N/A (N/A)50,000 .. 100,0000%00:00 (00:00)
14 It Comes Around - A Kinetic Novel Sep 29, 2016 $2.99N/A (N/A)0 .. 20,0000%00:00 (00:00)
15 Call Of The Mighty Warriors Jun 2, 2016 $0.49N/A (N/A)0 .. 20,0000%00:00 (00:00)
16 Starship Annihilator Sep 2, 2016 $0.49N/A (N/A)20,000 .. 50,0000%00:00 (00:00)
17 Karma Miwa Aug 12, 2016 $0.99N/A (N/A)0 .. 20,0000%00:00 (00:00)
18 Three Fourths Home: Extended Edition Mar 20, 2015 $0.74N/A (N/A/77%)0 .. 20,0000%00:00 (00:00)
19 Orbit HD Mar 18, 2015 $1.99N/A (N/A)20,000 .. 50,0000%00:00 (00:00)
20 The Cursed Forest Feb 26, 2019 $7.69N/A (N/A)0 .. 20,0000%00:00 (00:00)
21 Big Action Mega Fight! Jan 12, 2016 $0.99N/A (N/A)20,000 .. 50,0000%00:00 (00:00)
22 Rats - Time is running out! Aug 19, 2015 $2.74N/A (N/A)20,000 .. 50,0000%00:00 (00:00)
23 Inside My Radio May 11, 2015 $2.99N/A (N/A/68%)20,000 .. 50,0000%00:00 (00:00)
24 BlastZone 2 Feb 19, 2015 $2.49N/A (N/A)20,000 .. 50,0000%00:00 (00:00)
25 Gryphon Knight Epic Aug 20, 2015 $12.99N/A (N/A/55%)20,000 .. 50,0000%00:00 (00:00)
26 Porcunipine May 21, 2015 $0.99N/A (N/A)20,000 .. 50,0000%00:00 (00:00)
27 Canabalt Apr 30, 2015 $1.19N/A (N/A)20,000 .. 50,0000%00:00 (00:00)
28 Star Horizon May 15, 2020 $9.99N/A (N/A)0 .. 20,0000%00:00 (00:00)
29 Countless Rooms of Death Feb 20, 2014 $0.99N/A (N/A)20,000 .. 50,0000%00:00 (00:00)
30 Bunker - The Underground Game May 21, 2015 $3.99N/A (N/A/70%)0 .. 20,0000%00:00 (00:00)
31 stratO Jun 1, 2015 $4.99N/A (N/A)0 .. 20,0000%00:00 (00:00)
32 Centauri Sector Jun 24, 2015 $4.99N/A (N/A)20,000 .. 50,0000%00:00 (00:00)
33 It came from space and ate our brains Mar 19, 2015 $8.99N/A (N/A)200,000 .. 500,0000%00:00 (00:00)
34 Beyond Eyes Aug 11, 2015 $2.99N/A (N/A/60%)100,000 .. 200,0000%00:00 (00:00)
35 Child Phobia: Nightcoming Fears Dec 20, 2016 $1.99N/A (N/A)20,000 .. 50,0000%00:00 (00:00)
36 Starship Theory Jul 4, 2017 $3.99N/A (N/A)20,000 .. 50,0000%00:00 (00:00)
37 Three Kingdoms The Last Warlord May 26, 2017 $8.49N/A (N/A)50,000 .. 100,0000%00:00 (00:00)
38 GORN Jul 18, 2019 $9.99N/A (N/A/85%)200,000 .. 500,0000%00:00 (00:00)
39 News Tycoon Mar 24, 2017 $6.99N/A (N/A)0 .. 20,0000%00:00 (00:00)
40 Open Sorcery Feb 22, 2017 $3.99N/A (N/A)0 .. 20,0000%00:00 (00:00)
41 Witch It Oct 22, 2020 $11.99N/A (N/A)200,000 .. 500,0001.96%00:01 (00:00)
42 Guns of Icarus Alliance Mar 31, 2017 $0.74N/A (N/A)100,000 .. 200,0000%00:00 (00:00)
43 Introvert Quest Mar 15, 2017 $2.49N/A (N/A)100,000 .. 200,0000%00:00 (00:00)
44 The Archotek Project Apr 28, 2017 $0.99N/A (N/A)200,000 .. 500,0000%00:00 (00:00)
45 Distant Space Dec 20, 2016 $0.49N/A (N/A)50,000 .. 100,0000%00:00 (00:00)
46 Season of 12 Colors Mar 14, 2016 $1.94N/A (N/A)20,000 .. 50,0000%00:00 (00:00)
47 Action Alien Jun 26, 2015 $1.79N/A (N/A)50,000 .. 100,0000%00:00 (00:00)
48 Shoot 1UP Sep 23, 2015 $1.19N/A (N/A)20,000 .. 50,0000%00:00 (00:00)
49 8Bit Fiesta - Party Game Sep 30, 2016 FreeN/A (N/A)20,000 .. 50,0000%00:00 (00:00)
50 Impossiball Aug 8, 2017 $0.49N/A (N/A)0 .. 20,0000%00:00 (00:00)
51 Mu Complex Oct 23, 2015 $4.49N/A (N/A)0 .. 20,0000%00:00 (00:00)
52 Tin Star Feb 21, 2014 $4.99N/A (N/A)0 .. 20,0000%00:00 (00:00)
53 Dead In Bermuda Aug 27, 2015 $3.74N/A (N/A)20,000 .. 50,0000%00:00 (00:00)
54 Pizza Express Jun 25, 2015 $0.69N/A (N/A)20,000 .. 50,0000%00:00 (00:00)
55 Aviary Attorney Dec 21, 2015 $10.49N/A (N/A/77%)50,000 .. 100,0000%00:00 (00:00)
56 The Adventures of Mr. Bobley Jun 30, 2015 $0.99N/A (N/A)100,000 .. 200,0000%00:00 (00:00)
57 Spellsworn Mar 13, 2018 FreeN/A (N/A)200,000 .. 500,0000%00:00 (00:00)
58 Monument Jun 5, 2015 $0.49N/A (N/A)20,000 .. 50,0000%00:00 (00:00)
59 Luna Sky Oct 2, 2015 $12.99N/A (N/A)50,000 .. 100,0000%00:00 (00:00)
60 Western Press Apr 21, 2016 $0.99N/A (N/A)20,000 .. 50,0000%00:00 (00:00)
61 Polyball Dec 1, 2017 $11.24N/A (N/A)100,000 .. 200,0000%00:00 (00:00)
62 Sky Rogue Aug 24, 2017 $9.99N/A (N/A)50,000 .. 100,0000%00:00 (00:00)
63 Wake $4.99N/A (N/A)0 .. 20,0000%00:00 (00:00)
64 Escape Goat 2 Mar 24, 2014 $4.99N/A (N/A/76%)50,000 .. 100,0000%00:00 (00:00)
65 Intake Nov 5, 2013 $9.99N/A (N/A)20,000 .. 50,0000%00:00 (00:00)
66 Survivor Squad Nov 8, 2013 $0.59N/A (N/A)100,000 .. 200,0000%00:00 (00:00)
67 Super Puzzle Platformer Deluxe May 24, 2013 $1.59N/A (N/A)20,000 .. 50,0000%00:00 (00:00)
68 Montague's Mount Nov 19, 2013 $1.99N/A (N/A/39%)20,000 .. 50,0000%00:00 (00:00)
69 The Novelist Dec 10, 2013 $0.99N/A (N/A/66%)100,000 .. 200,0000%00:00 (00:00)
70 Ballpoint Universe - Infinite Dec 17, 2013 $3.99N/A (N/A)50,000 .. 100,0000%00:00 (00:00)
71 Knytt Underground Oct 25, 2013 $1.39N/A (N/A)50,000 .. 100,0000%00:00 (00:00)
72 STARWHAL Sep 29, 2014 $11.99N/A (N/A)50,000 .. 100,0000%00:00 (00:00)
73 Omegalodon Mar 9, 2012 $9.99N/A (N/A)20,000 .. 50,0000%00:00 (00:00)
74 Papo & Yo Apr 18, 2013 $14.99N/A (N/A/70%)200,000 .. 500,0000%00:00 (00:00)
75 Gravity Ghost Jan 26, 2015 $14.99N/A (N/A/75%)20,000 .. 50,0000%00:00 (00:00)
76 Bad Hotel Oct 16, 2013 $4.99N/A (N/A)50,000 .. 100,0000%00:00 (00:00)
77 Solar Flux Oct 24, 2013 $9.99N/A (N/A)100,000 .. 200,0000%00:00 (00:00)
78 Godus $14.99N/A (N/A)50,000 .. 100,0000%00:00 (00:00)
79 Maia Nov 23, 2018 $24.99N/A (N/A)50,000 .. 100,0000%00:00 (00:00)
80 iZBOT Sep 1, 2015 $11.99N/A (N/A)0 .. 20,0000%00:00 (00:00)
81 Club Life Apr 13, 2016 $3.89N/A (N/A)20,000 .. 50,0000%00:00 (00:00)
82 Redemption: Eternal Quest Aug 28, 2015 $1.19N/A (N/A)50,000 .. 100,0000%00:00 (00:00)
83 Dream Factory Nov 2, 2015 $9.99N/A (N/A)20,000 .. 50,0000%00:00 (00:00)
84 Void Invaders Aug 14, 2015 $0.5N/A (N/A)20,000 .. 50,0000%00:00 (00:00)
85 Fist Slash: Of Ultimate Fury Dec 10, 2015 $0.79N/A (N/A)0 .. 20,0000%00:00 (00:00)
86 Blaster Shooter GunGuy! Aug 10, 2015 $0.99N/A (N/A)50,000 .. 100,0000%00:00 (00:00)
87 The Purring Quest Nov 12, 2015 $1.09N/A (N/A)100,000 .. 200,0000%00:00 (00:00)
88 Wild Island Quest Sep 4, 2015 $0.49N/A (N/A)50,000 .. 100,0000%00:00 (00:00)
89 Faron's Fate Aug 14, 2015 $0.99N/A (N/A)0 .. 20,0000%00:00 (00:00)
90 Moonbase 332 May 20, 2015 $4.99N/A (N/A)20,000 .. 50,0000%00:00 (00:00)
91 none Nov 4, 2015 N/AN/A (N/A)20,000 .. 50,0000%00:00 (00:00)
92 Kitchen Simulator 2015 Sep 4, 2015 $0.69N/A (N/A)50,000 .. 100,0000%00:00 (00:00)
93 Super Trench Attack 2 Nov 6, 2015 $2N/A (N/A)20,000 .. 50,0000%00:00 (00:00)
94 ChargeShot Sep 18, 2015 $2.99N/A (N/A)0 .. 20,0000%00:00 (00:00)
95 Earth Overclocked Dec 4, 2015 $0.99N/A (N/A)20,000 .. 50,0000%00:00 (00:00)
96 Press X to Not Die Oct 6, 2017 $0.74N/A (N/A)100,000 .. 200,0000%00:00 (00:00)
97 Labyrinthine Dreams May 26, 2015 $0.49N/A (N/A)20,000 .. 50,0000%00:00 (00:00)
98 Three Dead Zed Jul 7, 2014 $5.99N/A (N/A)50,000 .. 100,0000%00:00 (00:00)
99 Imagine Earth Jan 20, 2021 $12.99N/A (N/A)0 .. 20,00033.33%02:07 (01:03)
100 Uriel's Chasm Sep 12, 2014 $0.74N/A (N/A)200,000 .. 500,0000%00:00 (00:00)
101 Munin Jun 10, 2014 $0.49N/A (N/A/68%)200,000 .. 500,0009.09%20:46 (06:55)
102 Arson and Plunder: Unleashed Sep 25, 2015 $0.99N/A (N/A)20,000 .. 50,0000%00:00 (00:00)
103 Rabbit Hole 3D: Steam Edition Apr 25, 2014 $2.99N/A (N/A)50,000 .. 100,0000%00:00 (00:00)
104 TownCraft Feb 25, 2015 $9.99N/A (N/A)0 .. 20,0000%00:00 (00:00)
105 Kromaia Oct 23, 2014 $19.99N/A (N/A/68%)0 .. 20,0000%00:00 (00:00)
106 Dreaming Sarah Mar 12, 2015 $1.19N/A (N/A)200,000 .. 500,0000%00:00 (00:00)
107 ReignMaker Apr 16, 2014 $14.99N/A (N/A)50,000 .. 100,0000%00:00 (00:00)
108 Imagine Me Mar 14, 2014 $2.99N/A (N/A)20,000 .. 50,0000%00:00 (00:00)
109 Autocraft Sep 20, 2017 $2.49N/A (N/A)20,000 .. 50,0000%00:00 (00:00)
110 Procyon Feb 26, 2014 $3.99N/A (N/A)0 .. 20,0000%00:00 (00:00)
111 Volt Apr 14, 2014 $0.99N/A (N/A)100,000 .. 200,0000%00:00 (00:00)
112 Jones On Fire Mar 14, 2013 $0.74N/A (N/A)50,000 .. 100,0000%00:00 (00:00)
113 Slip Apr 28, 2014 $0.99N/A (N/A)20,000 .. 50,0000%00:00 (00:00)
114 Tiny Guardians Mar 24, 2016 $9.99N/A (N/A)0 .. 20,0000%00:00 (00:00)
115 Planet Diver Nov 30, 2015 $3.99N/A (N/A)0 .. 20,0000%00:00 (00:00)
116 Doodle Kingdom Jun 9, 2016 $3.14N/A (N/A)50,000 .. 100,0000%00:00 (00:00)
117 Cosmic Leap Mar 17, 2016 $0.49N/A (N/A)20,000 .. 50,0000%00:00 (00:00)
118 Rencounter Nov 4, 2016 $0.59N/A (N/A)0 .. 20,0000%00:00 (00:00)
119 Godus Wars Feb 3, 2016 $14.99N/A (N/A)50,000 .. 100,0000%00:00 (00:00)
120 Evertown Jan 30, 2020 $1.99N/A (N/A)0 .. 20,0000%00:00 (00:00)
121 Bell Ringer Mar 6, 2016 $6.99N/A (N/A)200,000 .. 500,0000%00:00 (00:00)
122 10 Second Ninja X Jul 19, 2016 $0.99N/A (N/A)200,000 .. 500,0000%00:00 (00:00)
123 Space Moth DX Jan 22, 2016 $4.99N/A (N/A)0 .. 20,0000%00:00 (00:00)
124 Empire of the Gods May 13, 2008 $0.99N/A (N/A)50,000 .. 100,0000%00:00 (00:00)
125 MetaHuman Inc. Dec 18, 2015 $5.99N/A (N/A)0 .. 20,0000%00:00 (00:00)
126 Morphine Oct 26, 2015 $0.74N/A (N/A)20,000 .. 50,0000%00:00 (00:00)
127 PERFECT ANGLE: The puzzle game based on optical illusions Dec 22, 2015 $2.49N/A (N/A)50,000 .. 100,0000%00:00 (00:00)
128 Days Under Custody Nov 23, 2015 $4.99N/A (N/A)20,000 .. 50,0000%00:00 (00:00)
129 IMSCARED Jan 31, 2016 $3.99N/A (N/A)20,000 .. 50,0000%00:00 (00:00)
130 Heavy Gear Assault Feb 10, 2017 $39.99N/A (N/A)20,000 .. 50,0000%00:00 (00:00)
131 Boson X Sep 15, 2014 $1.49N/A (N/A)50,000 .. 100,0000%00:00 (00:00)
132 Velocibox Sep 8, 2014 $4.99N/A (N/A)50,000 .. 100,0000%00:00 (00:00)
133 Iron Fisticle Sep 16, 2014 $0.89N/A (N/A)20,000 .. 50,0000%00:00 (00:00)
134 Squishy the Suicidal Pig Oct 23, 2014 $0.89N/A (N/A)200,000 .. 500,0000%00:00 (00:00)
135 Fancy Skulls Jun 16, 2014 $3.05N/A (N/A)20,000 .. 50,0000%00:00 (00:00)
136 Great Permutator Sep 15, 2014 $0.76N/A (N/A)20,000 .. 50,0000%00:00 (00:00)
137 Curses 'N Chaos Aug 18, 2015 $9.99N/A (N/A)20,000 .. 50,0000%00:00 (00:00)
138 Chariot Nov 12, 2014 $1.49N/A (N/A/76%)50,000 .. 100,0000%00:00 (00:00)
139 Back to Bed Aug 6, 2014 $0.59N/A (N/A)500,000 .. 1,000,0000%00:00 (00:00)
140 Ninja Pizza Girl Sep 30, 2015 $0.69N/A (N/A/82%)20,000 .. 50,0000%00:00 (00:00)
141 NEON STRUCT May 20, 2015 $1.79N/A (N/A/62%)50,000 .. 100,0000%00:00 (00:00)
142 Frederic: Resurrection of Music May 16, 2014 $0.5N/A (N/A)100,000 .. 200,0000%00:00 (00:00)
143 OTTTD Aug 6, 2014 $1.99N/A (N/A)20,000 .. 50,0000%00:00 (00:00)
144 Frederic: Evil Strikes Back May 23, 2014 $0.79N/A (N/A)50,000 .. 100,0000%00:00 (00:00)
145 The Masterplan Jun 4, 2015 $19.99N/A (N/A/68%)100,000 .. 200,0000%00:00 (00:00)
146 Rhythm Destruction Jun 16, 2014 $4.99N/A (N/A)50,000 .. 100,0000%00:00 (00:00)
147 Amazing Princess Sarah Aug 18, 2014 $3.74N/A (N/A)0 .. 20,0000%00:00 (00:00)
148 Snooker Nation Championship Apr 27, 2016 $1.59N/A (N/A)20,000 .. 50,0000%00:00 (00:00)
149 Amigdala Mar 28, 2016 $5.99N/A (N/A)20,000 .. 50,0000%00:00 (00:00)
150 Dashy Square Apr 26, 2016 $2.99N/A (N/A)0 .. 20,0000%00:00 (00:00)
151 Cube Land Arena Mar 29, 2016 $0.49N/A (N/A)50,000 .. 100,00025%04:53 (02:47)
152 NORTH Apr 27, 2016 $0.49N/A (N/A)200,000 .. 500,0000%00:00 (00:00)
153 Hero Quest: Tower Conflict Apr 13, 2016 $0.49N/A (N/A)100,000 .. 200,0000%00:00 (00:00)
154 Can't Drive This Sep 25, 2016 $13.99N/A (N/A)0 .. 20,0000%00:00 (00:00)
155 CrazyCars3D Mar 28, 2016 $2.99N/A (N/A)50,000 .. 100,0000%00:00 (00:00)
156 Scanner Sombre Apr 26, 2017 $1.49N/A (N/A/67%)100,000 .. 200,0000%00:00 (00:00)
157 MetaTron Dec 19, 2016 N/AN/A (N/A)0 .. 20,0000%00:00 (00:00)
158 Reflection of Mine Feb 24, 2017 $2.39N/A (N/A)0 .. 20,0000%00:00 (00:00)
159 Mainlining Jan 26, 2017 $2.59N/A (N/A/73%)20,000 .. 50,0000%00:00 (00:00)
160 Mindless Running Feb 22, 2016 $0.49N/A (N/A)20,000 .. 50,0000%00:00 (00:00)
161 OPUS: The Day We Found Earth Apr 21, 2016 $8.99N/A (N/A)100,000 .. 200,0000%00:00 (00:00)
162 Mimpi Dreams Mar 22, 2016 FreeN/A (N/A)20,000 .. 50,0000%00:00 (00:00)
163 Wrath of Anna Apr 2, 2018 $19.99N/A (N/A)0 .. 20,0000%00:00 (00:00)
164 Yon Paradox May 6, 2016 $2.99N/A (N/A)0 .. 20,0000%00:00 (00:00)
165 The Deer God Feb 27, 2015 $14.99N/A (N/A/59%)20,000 .. 50,0000%00:00 (00:00)
166 Bermuda Mar 17, 2015 $2.99N/A (N/A)20,000 .. 50,0000%00:00 (00:00)
167 Pix the Cat Jan 29, 2015 $1.49N/A (N/A/77%)20,000 .. 50,00011.11%00:02 (00:00)
168 Ukrainian Ninja Dec 23, 2014 FreeN/A (N/A)20,000 .. 50,0000%00:00 (00:00)
169 Tulpa Jan 29, 2015 $2.99N/A (N/A)20,000 .. 50,0000%00:00 (00:00)
170 TIMEframe Jul 7, 2015 $0.95N/A (N/A)50,000 .. 100,0000%00:00 (00:00)
171 Phoenix Force Nov 13, 2014 $0.49N/A (N/A)50,000 .. 100,0000%00:00 (00:00)
172 On A Roll 3D Feb 12, 2015 $2.99N/A (N/A)50,000 .. 100,0000%00:00 (00:00)
173 Marvin's Mittens Dec 17, 2014 $5.99N/A (N/A)0 .. 20,0000%00:00 (00:00)
174 Glorkian Warrior: The Trials Of Glork Mar 24, 2015 $1.59N/A (N/A)20,000 .. 50,0000%00:00 (00:00)
175 Dwarf Tower May 5, 2014 $0.99N/A (N/A)20,000 .. 50,0000%00:00 (00:00)
176 iO Dec 5, 2014 $2.49N/A (N/A)50,000 .. 100,0000%00:00 (00:00)
177 Sky Mercenaries Dec 16, 2014 $9.99N/A (N/A)20,000 .. 50,0000%00:00 (00:00)
178 Horizon Shift May 29, 2015 $0.99N/A (N/A)100,000 .. 200,0000%00:00 (00:00)
179 Bloody Streets Mar 12, 2015 $1.99N/A (N/A)20,000 .. 50,0000%00:00 (00:00)
180 Super Life of Pixel Dec 20, 2018 $9.99N/A (N/A)20,000 .. 50,0000%00:00 (00:00)
181 Chronicles of a Dark Lord: Episode 1 Tides of Fate Complete Dec 19, 2014 N/AN/A (N/A)50,000 .. 100,0000%00:00 (00:00)
182 Party of Sin Dec 13, 2012 $2.99N/A (N/A)50,000 .. 100,0000%00:00 (00:00)
183 SOL: Exodus Jan 25, 2012 $7.99N/A (N/A/57%)50,000 .. 100,0000%00:00 (00:00)
184 Home Jun 1, 2012 $4.99N/A (N/A/69%)200,000 .. 500,0000%00:00 (00:00)
185 Titan Attacks! Feb 3, 2012 $4.99N/A (N/A)50,000 .. 100,0000%00:00 (00:00)
186 Ultratron Mar 18, 2013 $4.99N/A (N/A)100,000 .. 200,0000%00:00 (00:00)
187 BIT.TRIP CORE Oct 2, 2012 $3.99N/A (N/A)20,000 .. 50,0000%00:00 (00:00)
188 Cargo Commander Nov 1, 2012 $1.99N/A (N/A)100,000 .. 200,0000%00:00 (00:00)
189 BIT.TRIP VOID Dec 19, 2012 $3.99N/A (N/A)20,000 .. 50,0000%00:00 (00:00)
190 Puddle Nov 9, 2012 $7.99N/A (N/A)50,000 .. 100,0000%00:00 (00:00)
191 Tales From Space: Mutant Blobs Attack Aug 15, 2012 $2.99N/A (N/A/83%)100,000 .. 200,0000%00:00 (00:00)
192 Retro/Grade Mar 20, 2013 $2.49N/A (N/A)20,000 .. 50,0000%00:00 (00:00)
193 All Zombies Must Die!: Scorepocalypse Apr 19, 2012 $4.99N/A (N/A)20,000 .. 50,0000%00:00 (00:00)
194 BIT.TRIP BEAT Nov 2, 2010 $3.99N/A (N/A)200,000 .. 500,0000%00:00 (00:00)
195 Unmechanical Aug 8, 2012 $9.99N/A (N/A/74%)100,000 .. 200,0000%00:00 (00:00)
196 Super Splatters Jun 26, 2013 N/AN/A (N/A/73%)50,000 .. 100,0000%00:00 (00:00)
197 Sugar Cube: Bittersweet Factory Nov 7, 2012 $1.74N/A (N/A)20,000 .. 50,0000%00:00 (00:00)
198 Ms. Splosion Man Apr 3, 2013 $2.49N/A (N/A)50,000 .. 100,0000%00:00 (00:00)

Tags over time:

Access restricted.

This feature is only available to users with special access rights. Sorry.

If you want to proceed, you need to register or log in first and then back Steam Spy on Patreon. Look for Indie or Pro pledge.

Don't forget to use the same email as on Steam Spy!

Owners of this game also own:

Access restricted.

This feature is only available to users with special access rights. Sorry.

If you want to proceed, you need to register or log in first and then back Steam Spy on Patreon. Look for Indie or Pro pledge.

Don't forget to use the same email as on Steam Spy!

Playtime distribution:

Access restricted.

This feature is only available to users with special access rights. Sorry.

If you want to proceed, you need to register or log in first and then back Steam Spy on Patreon. Look for Indie or Pro pledge.

Don't forget to use the same email as on Steam Spy!

Playtime (2 weeks):

Access restricted.

This feature is only available to users with special access rights. Sorry.

If you want to proceed, you need to register or log in first and then back Steam Spy on Patreon. Look for Indie or Pro pledge.

Don't forget to use the same email as on Steam Spy!

User reviews:

Login required.

Please register or log in to see this information.